Time;durP1;ratioP1;P1;durP2;ratioP2;P2;SDS_P1;SDS_P2;PMS_P1;PMS_P2;Temp;Humidity;BMP_temperature;BMP_pressure;BME280_temperature;BME280_humidity;BME280_pressure;Samples;Min_cycle;Max_cycle;Signal;HPM_P1;HPM_P2
2020/12/27 00:02:15;;;;;;;20.27;10.47;;;-4.00;14.80;;;;;;4780423;28;21311;-77
2020/12/27 00:04:39;;;;;;;19.03;10.67;;;-3.90;99.90;;;;;;4800751;28;20645;-81
2020/12/27 00:07:07;;;;;;;21.20;11.03;;;-4.10;99.90;;;;;;4768194;28;21474;-76
2020/12/27 00:09:29;;;;;;;21.77;11.43;;;-4.30;99.90;;;;;;4784820;28;20695;-76
2020/12/27 00:11:52;;;;;;;22.17;11.73;;;-4.10;99.90;;;;;;4784522;28;21307;-78
2020/12/27 00:14:14;;;;;;;23.40;12.10;;;-4.10;99.90;;;;;;4799579;28;21127;-79
2020/12/27 00:16:36;;;;;;;21.93;12.63;;;-4.30;1.00;;;;;;4802393;28;20618;-78
2020/12/27 00:18:59;;;;;;;25.63;13.57;;;-4.20;1.00;;;;;;4803703;28;20598;-78
2020/12/27 00:21:22;;;;;;;22.43;12.20;;;-4.10;1.00;;;;;;4802335;28;20607;-77
2020/12/27 00:23:44;;;;;;;23.33;12.63;;;-3.90;1.00;;;;;;4784461;28;21256;-80
2020/12/27 00:26:10;;;;;;;26.23;13.03;;;-4.30;1.00;;;;;;4785631;28;20615;-78
2020/12/27 00:28:33;;;;;;;23.37;12.40;;;;;;;;;;4785207;28;20626;-75
2020/12/27 00:30:55;;;;;;;27.80;13.70;;;-4.50;1.00;;;;;;4811729;28;20621;-82
2020/12/27 00:33:17;;;;;;;32.63;15.97;;;-4.10;1.00;;;;;;4790127;28;20654;-80
2020/12/27 00:35:40;;;;;;;32.13;17.30;;;;;;;;;;4801979;28;20599;-75
2020/12/27 00:38:02;;;;;;;37.27;18.97;;;-4.30;1.00;;;;;;4818132;28;20994;-80
2020/12/27 00:40:25;;;;;;;38.37;17.60;;;;;;;;;;4806405;28;20686;-75
2020/12/27 00:42:47;;;;;;;39.53;18.37;;;;;;;;;;4785975;28;20627;-75
2020/12/27 00:45:09;;;;;;;42.03;19.60;;;-4.40;1.00;;;;;;4786200;28;20619;-82
2020/12/27 00:47:31;;;;;;;38.90;18.53;;;-4.10;1.00;;;;;;4769754;28;20631;-80
2020/12/27 00:49:53;;;;;;;37.23;17.90;;;-4.30;1.00;;;;;;4787369;28;20623;-80
2020/12/27 00:52:16;;;;;;;36.33;18.23;;;-4.30;1.00;;;;;;4786053;28;20707;-79
2020/12/27 00:54:40;;;;;;;33.50;18.23;;;-4.40;1.00;;;;;;4777594;28;20619;-78
2020/12/27 00:57:03;;;;;;;34.53;18.53;;;;;;;;;;4785454;28;20638;-75
2020/12/27 00:59:27;;;;;;;38.43;19.10;;;-4.50;1.00;;;;;;4787382;28;20625;-77
2020/12/27 01:01:56;;;;;;;42.37;19.50;;;;;;;;;;4782803;28;20698;-78
2020/12/27 01:04:36;;;;;;;46.03;19.10;;;-4.70;1.00;;;;;;4803869;28;20646;-77
2020/12/27 01:06:58;;;;;;;37.93;16.60;;;-4.30;1.00;;;;;;4803337;28;20610;-78
2020/12/27 01:09:21;;;;;;;34.83;18.27;;;-4.50;1.00;;;;;;4784515;28;20619;-77
2020/12/27 01:11:47;;;;;;;34.40;17.57;;;-4.40;1.00;;;;;;4784452;28;20674;-81
2020/12/27 01:14:10;;;;;;;38.00;17.97;;;-4.40;1.00;;;;;;4821098;28;20617;-80
2020/12/27 01:16:32;;;;;;;39.37;18.17;;;-4.40;1.00;;;;;;4818654;28;20660;-81
2020/12/27 01:18:54;;;;;;;34.60;17.27;;;-4.30;1.00;;;;;;4787140;28;20647;-79
2020/12/27 01:21:27;;;;;;;34.77;17.40;;;-4.60;1.00;;;;;;4788101;28;20690;-77
2020/12/27 01:23:50;;;;;;;35.60;18.57;;;-4.40;1.00;;;;;;4784940;28;20627;-75
2020/12/27 01:26:13;;;;;;;36.53;18.00;;;;;;;;;;4784950;28;20684;-78
2020/12/27 01:28:39;;;;;;;36.53;17.93;;;-4.40;1.00;;;;;;4784569;28;20627;-76
2020/12/27 01:31:03;;;;;;;35.77;17.93;;;-4.50;1.00;;;;;;4790031;28;20615;-77
2020/12/27 01:33:33;;;;;;;32.10;17.13;;;-4.70;1.00;;;;;;4784956;28;20659;-78
2020/12/27 01:35:57;;;;;;;29.73;15.93;;;-4.40;1.00;;;;;;4784140;28;20744;-79
2020/12/27 01:38:19;;;;;;;28.40;15.90;;;;;;;;;;4783481;28;20631;-79
2020/12/27 01:40:42;;;;;;;33.87;16.87;;;;;;;;;;4767973;28;20640;-79
2020/12/27 01:43:07;;;;;;;28.13;14.87;;;-4.40;1.00;;;;;;4783332;28;20623;-79
2020/12/27 01:45:30;;;;;;;30.53;16.23;;;-4.40;1.00;;;;;;4815865;28;20668;-81
2020/12/27 01:48:11;;;;;;;31.03;16.97;;;-4.80;1.00;;;;;;4784753;28;20699;-80
2020/12/27 01:50:35;;;;;;;30.07;15.40;;;-4.70;1.00;;;;;;4783392;28;20667;-79
2020/12/27 01:53:00;;;;;;;31.87;16.27;;;-4.70;1.00;;;;;;4782813;28;20659;-77
2020/12/27 01:55:31;;;;;;;30.87;15.77;;;-4.70;1.00;;;;;;4763558;29;20697;-78
2020/12/27 01:58:14;;;;;;;30.30;15.67;;;-4.60;1.00;;;;;;4778594;28;21351;-77
2020/12/27 02:00:41;;;;;;;29.37;15.33;;;-4.50;1.00;;;;;;4751514;28;20746;-78
2020/12/27 02:03:29;;;;;;;27.83;14.27;;;-4.70;1.00;;;;;;4775141;28;20670;-78
2020/12/27 02:05:59;;;;;;;30.03;15.43;;;-5.00;1.00;;;;;;4813744;28;20819;-84
2020/12/27 02:08:21;;;;;;;27.70;14.50;;;-4.70;1.00;;;;;;4801243;28;20673;-79
2020/12/27 02:10:59;;;;;;;28.40;14.37;;;-4.60;1.00;;;;;;4784133;28;20642;-77
2020/12/27 02:13:22;;;;;;;25.53;14.87;;;;;;;;;;4763666;29;20675;-79
2020/12/27 02:15:46;;;;;;;31.10;15.47;;;-4.70;1.00;;;;;;4787692;28;20623;-78
2020/12/27 02:18:34;;;;;;;27.77;13.97;;;-4.70;1.00;;;;;;4759866;29;20631;-77
2020/12/27 02:20:59;;;;;;;24.90;13.00;;;-4.20;1.00;;;;;;4781805;28;21032;-79
2020/12/27 02:23:25;;;;;;;24.77;13.63;;;;;;;;;;4767358;28;20667;-81
2020/12/27 02:25:58;;;;;;;23.13;12.60;;;-4.80;1.00;;;;;;4786695;28;20682;-81
2020/12/27 02:28:28;;;;;;;23.10;13.13;;;-4.70;1.00;;;;;;4779038;28;20667;-83
2020/12/27 02:30:53;;;;;;;23.17;13.50;;;-4.80;1.00;;;;;;4783781;28;20627;-83
2020/12/27 02:33:15;;;;;;;23.83;13.13;;;-5.30;1.00;;;;;;4776093;28;21047;-80
2020/12/27 02:35:39;;;;;;;22.73;12.13;;;-4.80;1.00;;;;;;4783195;28;20634;-79
2020/12/27 02:38:04;;;;;;;18.77;11.57;;;-4.90;1.00;;;;;;4767366;28;21004;-82
2020/12/27 02:40:28;;;;;;;19.80;11.73;;;-4.60;1.00;;;;;;4815802;28;20665;-81
2020/12/27 02:43:15;;;;;;;20.70;12.00;;;-4.90;1.00;;;;;;4764991;29;20636;-80
2020/12/27 02:45:40;;;;;;;19.77;11.50;;;-4.70;1.00;;;;;;4747738;28;20976;-81
2020/12/27 02:48:34;;;;;;;20.43;13.00;;;-4.90;1.00;;;;;;4757439;29;20623;-79
2020/12/27 02:51:01;;;;;;;24.43;12.53;;;;;;;;;;4765006;29;20628;-82
2020/12/27 02:53:23;;;;;;;21.13;11.67;;;-5.10;1.00;;;;;;4790498;28;20681;-81
2020/12/27 02:55:46;;;;;;;21.30;12.00;;;;;;;;;;4782123;28;20711;-78
2020/12/27 02:58:08;;;;;;;22.87;11.97;;;-4.90;1.00;;;;;;4799799;28;20598;-82
2020/12/27 03:00:33;;;;;;;20.53;12.60;;;-4.90;1.00;;;;;;4781327;28;20663;-78
2020/12/27 03:03:14;;;;;;;20.70;11.97;;;-5.10;1.00;;;;;;4800313;28;20705;-80
2020/12/27 03:05:43;;;;;;;19.27;11.50;;;;;;;;;;4785766;28;20670;-81
2020/12/27 03:08:05;;;;;;;22.00;12.37;;;;;;;;;;4781957;28;20658;-80
2020/12/27 03:10:47;;;;;;;18.03;11.63;;;;;;;;;;4786002;28;20634;-81
2020/12/27 03:13:09;;;;;;;20.10;11.83;;;-5.00;1.00;;;;;;4784215;28;20662;-81
2020/12/27 03:15:32;;;;;;;19.60;11.47;;;-5.00;1.00;;;;;;4786056;28;20634;-81
2020/12/27 03:18:22;;;;;;;15.90;9.80;;;-4.80;1.00;;;;;;4766432;29;20687;-80
2020/12/27 03:21:00;;;;;;;19.70;10.90;;;-4.80;1.00;;;;;;4775654;28;21148;-82
2020/12/27 03:23:23;;;;;;;19.00;11.07;;;-4.90;1.00;;;;;;4785558;28;20997;-83
2020/12/27 03:25:51;;;;;;;20.30;11.00;;;-5.00;1.00;;;;;;4785927;28;20701;-82
2020/12/27 03:28:15;;;;;;;17.03;10.77;;;;;;;;;;4783445;28;20622;-81
2020/12/27 03:30:43;;;;;;;17.53;10.63;;;-5.00;1.00;;;;;;4768937;28;21059;-82
2020/12/27 03:33:13;;;;;;;18.50;10.30;;;-4.90;1.00;;;;;;4770297;28;20675;-81
2020/12/27 03:35:48;;;;;;;17.37;10.00;;;;;;;;;;4785090;28;20974;-83
2020/12/27 03:38:10;;;;;;;19.97;10.23;;;;;;;;;;4810015;28;20626;-82
2020/12/27 03:40:52;;;;;;;15.63;8.83;;;;;;;;;;4783210;28;20651;-81
2020/12/27 03:43:30;;;;;;;17.10;9.60;;;-4.80;1.00;;;;;;4782081;28;20987;-78
2020/12/27 03:45:53;;;;;;;16.30;10.30;;;-4.70;1.00;;;;;;4781732;28;21085;-81
2020/12/27 03:48:24;;;;;;;18.53;9.80;;;-5.00;1.00;;;;;;4786263;28;20634;-80
2020/12/27 03:51:06;;;;;;;16.17;9.30;;;-4.90;1.00;;;;;;4772677;28;20617;-79
2020/12/27 03:53:30;;;;;;;17.50;9.70;;;;;;;;;;4782656;28;20713;-83
2020/12/27 03:56:00;;;;;;;13.93;8.57;;;-5.00;1.00;;;;;;4796950;28;20638;-79
2020/12/27 03:59:01;;;;;;;12.77;8.00;;;;;;;;;;4744211;29;20630;-82
2020/12/27 04:01:37;;;;;;;15.17;9.00;;;-4.90;1.00;;;;;;4740345;29;20632;-79
2020/12/27 04:04:00;;;;;;;13.40;9.00;;;-4.80;1.00;;;;;;4765053;28;20718;-78
2020/12/27 04:06:22;;;;;;;14.47;8.77;;;-4.90;1.00;;;;;;4769170;28;20656;-79
2020/12/27 04:08:55;;;;;;;14.33;8.80;;;-4.50;1.00;;;;;;4768451;28;21244;-81
2020/12/27 04:11:18;;;;;;;15.03;8.80;;;;;;;;;;4784225;28;20679;-80
2020/12/27 04:13:42;;;;;;;15.47;9.00;;;-5.00;1.00;;;;;;4782149;28;22157;-82
2020/12/27 04:16:09;;;;;;;13.13;9.47;;;-5.00;1.00;;;;;;4784274;28;20630;-82
2020/12/27 04:18:34;;;;;;;15.40;9.63;;;-4.90;1.00;;;;;;4768717;28;21273;-82
2020/12/27 04:21:15;;;;;;;16.93;9.80;;;-5.10;1.00;;;;;;4801780;28;20614;-82
2020/12/27 04:23:43;;;;;;;17.23;9.97;;;-5.10;1.00;;;;;;4769719;28;20645;-80
2020/12/27 04:26:06;;;;;;;17.97;11.20;;;;;;;;;;4766238;29;21045;-76
2020/12/27 04:28:28;;;;;;;16.30;10.23;;;;;;;;;;4776378;28;20619;-78
2020/12/27 04:30:50;;;;;;;15.50;9.90;;;-5.20;1.00;;;;;;4784298;28;20669;-76
2020/12/27 04:33:36;;;;;;;16.33;9.87;;;-5.30;1.00;;;;;;4800745;28;20661;-76
2020/12/27 04:36:16;;;;;;;20.13;9.77;;;-5.30;1.00;;;;;;4767943;29;20614;-76
2020/12/27 04:38:38;;;;;;;13.97;9.37;;;-5.50;1.00;;;;;;4774044;28;20627;-79
2020/12/27 04:41:01;;;;;;;15.27;9.77;;;-5.30;1.00;;;;;;4784117;28;20977;-80
2020/12/27 04:43:24;;;;;;;16.60;9.83;;;;;;;;;;4767720;28;20632;-80
2020/12/27 04:45:50;;;;;;;17.90;10.03;;;-5.50;1.00;;;;;;4767437;28;20640;-80
2020/12/27 04:48:24;;;;;;;16.53;9.83;;;-5.60;1.00;;;;;;4787233;28;21242;-83
2020/12/27 04:51:02;;;;;;;18.60;10.60;;;-5.80;1.00;;;;;;4801298;28;20709;-81
2020/12/27 04:53:26;;;;;;;17.37;10.80;;;;;;;;;;4783571;28;20677;-77
2020/12/27 04:55:53;;;;;;;17.40;10.70;;;-5.70;1.00;;;;;;4782740;28;20615;-82
2020/12/27 04:58:29;;;;;;;18.43;11.17;;;-4.80;1.00;;;;;;4783436;28;20638;-83
2020/12/27 05:01:09;;;;;;;15.23;10.03;;;-5.80;1.00;;;;;;4781493;28;20985;-80
2020/12/27 05:04:03;;;;;;;16.43;9.53;;;-5.70;1.00;;;;;;4773525;28;20654;-80
2020/12/27 05:06:37;;;;;;;18.07;10.70;;;-5.60;1.00;;;;;;4781474;28;20623;-82
2020/12/27 05:09:00;;;;;;;15.23;10.10;;;-5.70;1.00;;;;;;4780478;29;20651;-80
2020/12/27 05:11:25;;;;;;;17.37;10.13;;;;;;;;;;4764626;29;20624;-80
2020/12/27 05:13:53;;;;;;;16.40;8.77;;;-5.90;7.90;;;;;;4765004;29;20995;-81
2020/12/27 05:16:24;;;;;;;17.23;9.97;;;-5.90;7.10;;;;;;4780966;29;20972;-81
2020/12/27 05:18:50;;;;;;;15.87;9.17;;;-5.80;15.80;;;;;;4781545;29;20615;-80
2020/12/27 05:21:14;;;;;;;17.20;10.10;;;-5.80;8.50;;;;;;4765449;29;20627;-82
2020/12/27 05:23:37;;;;;;;16.10;9.13;;;-6.30;13.20;;;;;;4764575;29;21034;-81
2020/12/27 05:26:11;;;;;;;13.73;9.13;;;-5.80;28.00;;;;;;4764806;29;20623;-79
2020/12/27 05:28:44;;;;;;;19.33;9.93;;;-5.80;21.20;;;;;;4749614;29;20632;-83
2020/12/27 05:31:39;;;;;;;16.70;10.20;;;-5.80;35.50;;;;;;4775882;29;20631;-80
2020/12/27 05:34:40;;;;;;;15.93;9.27;;;-5.90;37.20;;;;;;4760828;29;21037;-79
2020/12/27 05:37:31;;;;;;;16.20;9.10;;;-5.80;40.40;;;;;;4781589;29;20631;-81
2020/12/27 05:40:23;;;;;;;18.23;9.60;;;-5.30;29.90;;;;;;4763567;29;20744;-81
2020/12/27 05:43:13;;;;;;;15.07;9.37;;;-5.70;33.10;;;;;;4763081;29;21003;-83
2020/12/27 05:45:38;;;;;;;16.80;9.27;;;-5.70;49.50;;;;;;4762008;29;20683;-83
2020/12/27 05:48:01;;;;;;;17.40;10.00;;;;;;;;;;4748236;29;20637;-78
2020/12/27 05:50:23;;;;;;;17.97;10.20;;;-5.70;51.40;;;;;;4763680;29;20619;-80
2020/12/27 05:52:48;;;;;;;18.23;10.53;;;-5.60;38.50;;;;;;4779436;28;21012;-82
2020/12/27 05:55:19;;;;;;;17.40;10.13;;;-5.40;46.50;;;;;;4762220;29;20647;-82
2020/12/27 05:57:43;;;;;;;19.37;10.17;;;-5.80;51.70;;;;;;4761985;29;20636;-80
2020/12/27 06:00:10;;;;;;;19.87;10.23;;;-5.70;57.00;;;;;;4747662;29;20695;-80
2020/12/27 06:02:50;;;;;;;16.30;9.27;;;-5.30;53.30;;;;;;4761702;29;20994;-81
2020/12/27 06:05:40;;;;;;;18.07;10.23;;;-5.60;58.20;;;;;;4763192;29;20757;-79
2020/12/27 06:08:31;;;;;;;19.43;9.00;;;-5.50;57.50;;;;;;4774798;28;21076;-75
2020/12/27 06:11:23;;;;;;;17.87;9.87;;;-5.60;43.10;;;;;;4782201;28;20694;-82
2020/12/27 06:14:32;;;;;;;16.53;9.50;;;-5.30;55.60;;;;;;4782131;28;20991;-81
2020/12/27 06:17:15;;;;;;;17.13;9.77;;;-5.50;54.20;;;;;;4799626;28;21226;-81
2020/12/27 06:19:59;;;;;;;19.50;10.10;;;-5.90;40.20;;;;;;4782523;28;20697;-82
2020/12/27 06:22:30;;;;;;;18.27;9.67;;;-5.50;53.30;;;;;;4781959;28;21255;-81
2020/12/27 06:25:14;;;;;;;22.30;11.63;;;-5.70;53.00;;;;;;4799472;28;20633;-80
2020/12/27 06:27:37;;;;;;;37.67;17.77;;;-5.80;42.90;;;;;;4751150;28;20624;-77
2020/12/27 06:30:05;;;;;;;46.17;22.33;;;-5.70;39.80;;;;;;4782809;28;20671;-77
2020/12/27 06:32:34;;;;;;;40.80;19.70;;;-5.70;40.20;;;;;;4781995;28;21165;-78
2020/12/27 06:34:56;;;;;;;31.97;15.13;;;;;;;;;;4781813;28;21057;-80
2020/12/27 06:37:19;;;;;;;23.77;11.93;;;-5.70;54.40;;;;;;4784168;28;20619;-80
2020/12/27 06:40:00;;;;;;;29.07;13.07;;;-5.60;55.30;;;;;;4803828;28;20637;-80
2020/12/27 06:42:42;;;;;;;40.67;17.87;;;-5.60;55.50;;;;;;4785953;28;21251;-80
2020/12/27 06:45:29;;;;;;;46.63;24.30;;;-5.80;44.20;;;;;;4802149;28;21162;-77
2020/12/27 06:48:36;;;;;;;32.93;17.57;;;-5.60;55.70;;;;;;4787538;28;20630;-79
2020/12/27 06:51:38;;;;;;;23.03;12.50;;;-5.50;42.10;;;;;;4797641;28;20995;-80
2020/12/27 06:54:02;;;;;;;20.93;11.10;;;-5.40;53.80;;;;;;4766687;29;20699;-80
2020/12/27 06:56:38;;;;;;;15.73;9.63;;;-5.60;53.40;;;;;;4781318;28;20670;-79
2020/12/27 06:59:23;;;;;;;19.43;10.80;;;-5.60;39.70;;;;;;4803067;28;20662;-79
2020/12/27 07:02:05;;;;;;;29.67;15.17;;;-5.50;40.40;;;;;;4782918;28;20658;-76
2020/12/27 07:04:36;;;;;;;44.93;21.13;;;-5.30;56.50;;;;;;4785473;28;21315;-78
2020/12/27 07:06:58;;;;;;;42.83;21.17;;;-4.80;57.80;;;;;;4801756;28;20585;-79
2020/12/27 07:09:22;;;;;;;48.40;25.63;;;-4.70;69.70;;;;;;4802686;28;20626;-77
2020/12/27 07:11:45;;;;;;;43.43;22.00;;;-4.00;93.50;;;;;;4769927;28;20752;-80
2020/12/27 07:14:11;;;;;;;31.93;15.57;;;-0.30;89.80;;;;;;4768830;28;20707;-78
2020/12/27 07:16:48;;;;;;;36.80;15.50;;;-1.90;63.50;;;;;;4784324;28;20611;-78
2020/12/27 07:19:16;;;;;;;27.40;13.40;;;-0.80;20.40;;;;;;4784685;28;21042;-76
2020/12/27 07:21:38;;;;;;;25.27;11.80;;;;;;;;;;4803052;28;21014;-79
2020/12/27 07:24:19;;;;;;;22.17;11.20;;;0.90;1.00;;;;;;4797988;28;20648;-77
2020/12/27 07:26:44;;;;;;;19.13;10.40;;;1.30;55.70;;;;;;4766333;29;20628;-76
2020/12/27 07:29:07;;;;;;;28.57;11.73;;;1.40;1.00;;;;;;4780113;28;21160;-81
2020/12/27 07:31:33;;;;;;;26.87;13.17;;;1.30;1.00;;;;;;4802964;28;20602;-79
2020/12/27 07:33:59;;;;;;;25.17;12.37;;;1.30;1.00;;;;;;4769563;28;21269;-79
2020/12/27 07:36:25;;;;;;;21.37;10.73;;;1.50;1.00;;;;;;4768507;28;20698;-79
2020/12/27 07:39:01;;;;;;;20.03;10.33;;;1.50;99.90;;;;;;4801952;28;20610;-78
2020/12/27 07:41:24;;;;;;;20.00;11.77;;;1.00;99.90;;;;;;4802205;28;20665;-74
2020/12/27 07:43:47;;;;;;;21.77;11.10;;;0.90;99.90;;;;;;4783996;28;20643;-78
2020/12/27 07:46:09;;;;;;;20.63;11.77;;;0.20;99.90;;;;;;4802551;28;21008;-80
2020/12/27 07:48:31;;;;;;;21.93;12.20;;;0.20;1.00;;;;;;4784764;28;20622;-77
2020/12/27 07:50:57;;;;;;;20.23;10.80;;;-0.30;1.00;;;;;;4801853;28;21167;-81
2020/12/27 07:53:20;;;;;;;16.60;9.73;;;0.40;1.00;;;;;;4801952;28;20618;-80
2020/12/27 07:55:42;;;;;;;20.00;9.97;;;-0.60;1.00;;;;;;4784667;28;21223;-80
2020/12/27 07:58:06;;;;;;;18.40;9.47;;;-0.50;99.90;;;;;;4785436;28;20627;-80
2020/12/27 08:00:30;;;;;;;15.83;8.80;;;-0.70;99.90;;;;;;4782650;28;20662;-76
2020/12/27 08:02:53;;;;;;;14.17;8.70;;;-0.80;1.00;;;;;;4783615;28;20709;-82
2020/12/27 08:05:15;;;;;;;17.57;9.30;;;-0.90;99.90;;;;;;4783888;28;21177;-78
2020/12/27 08:07:37;;;;;;;13.23;8.83;;;-1.00;1.00;;;;;;4784457;28;21064;-78
2020/12/27 08:10:13;;;;;;;14.83;9.37;;;-1.00;1.00;;;;;;4801470;28;20586;-79
2020/12/27 08:12:36;;;;;;;15.07;8.87;;;-1.00;1.00;;;;;;4800885;28;20595;-77
2020/12/27 08:14:58;;;;;;;14.87;9.03;;;-1.30;1.00;;;;;;4783814;28;20663;-81
2020/12/27 08:17:20;;;;;;;18.23;9.33;;;-1.30;1.00;;;;;;4768080;28;21177;-76
2020/12/27 08:19:42;;;;;;;17.33;9.40;;;-1.40;1.00;;;;;;4767257;29;21079;-76
2020/12/27 08:22:04;;;;;;;16.80;10.47;;;-1.40;1.00;;;;;;4799496;28;20603;-76
2020/12/27 08:24:26;;;;;;;14.13;9.20;;;-1.60;1.00;;;;;;4813992;28;20696;-74
2020/12/27 08:26:49;;;;;;;16.33;9.23;;;-1.60;62.30;;;;;;4801639;28;20670;-76
2020/12/27 08:29:13;;;;;;;16.60;9.50;;;-1.60;99.90;;;;;;4801400;28;20657;-75
2020/12/27 08:31:36;;;;;;;16.83;9.33;;;-1.60;35.30;;;;;;4781935;28;20996;-77
2020/12/27 08:34:06;;;;;;;16.47;9.10;;;-1.70;1.00;;;;;;4782515;28;20655;-74
2020/12/27 08:36:29;;;;;;;14.53;9.53;;;-1.60;99.90;;;;;;4778853;28;20736;-76
2020/12/27 08:38:59;;;;;;;17.60;9.27;;;-1.70;1.00;;;;;;4790398;28;20620;-76
2020/12/27 08:41:24;;;;;;;13.73;8.27;;;-1.60;82.00;;;;;;4764629;29;20627;-75
2020/12/27 08:44:07;;;;;;;15.27;8.63;;;-1.70;99.90;;;;;;4788899;28;20618;-74
2020/12/27 08:46:34;;;;;;;12.77;7.57;;;-1.60;99.90;;;;;;4778678;28;21058;-76
2020/12/27 08:49:04;;;;;;;14.43;8.07;;;-1.40;99.90;;;;;;4796280;28;20622;-75
2020/12/27 08:51:29;;;;;;;16.97;8.93;;;-1.60;1.00;;;;;;4762848;28;20644;-77
2020/12/27 08:53:51;;;;;;;18.03;9.03;;;-1.50;30.50;;;;;;4765591;28;21239;-76
2020/12/27 08:56:15;;;;;;;13.47;8.03;;;-1.50;99.90;;;;;;4783120;28;20619;-76
2020/12/27 08:58:37;;;;;;;13.57;7.77;;;-1.50;99.90;;;;;;4782615;28;21030;-76
2020/12/27 09:01:00;;;;;;;16.73;8.63;;;-1.40;68.20;;;;;;4779416;28;20627;-82
2020/12/27 09:03:22;;;;;;;13.87;8.00;;;-1.20;99.90;;;;;;4791553;28;20693;-75
2020/12/27 09:05:45;;;;;;;13.70;7.53;;;-1.20;45.00;;;;;;4798645;28;20610;-74
2020/12/27 09:08:14;;;;;;;13.67;7.77;;;-0.90;45.50;;;;;;4788733;28;20704;-77
2020/12/27 09:10:37;;;;;;;12.27;7.10;;;-0.90;1.00;;;;;;4798367;28;20618;-74
2020/12/27 09:13:01;;;;;;;10.80;7.00;;;-0.80;1.00;;;;;;4781961;28;21275;-75
2020/12/27 09:15:29;;;;;;;12.43;7.93;;;-0.60;1.00;;;;;;4781312;28;20706;-75
2020/12/27 09:17:57;;;;;;;11.73;6.73;;;-0.20;1.00;;;;;;4781849;28;20623;-74
2020/12/27 09:20:21;;;;;;;16.43;8.33;;;-0.10;1.00;;;;;;4799177;28;20614;-74
2020/12/27 09:22:43;;;;;;;11.73;6.47;;;-0.50;1.00;;;;;;4780660;28;21188;-75
2020/12/27 09:25:07;;;;;;;11.30;6.40;;;-0.10;99.90;;;;;;4799057;28;20677;-75
2020/12/27 09:27:30;;;;;;;11.23;7.27;;;0.10;99.90;;;;;;4781612;28;21003;-74
2020/12/27 09:30:00;;;;;;;10.17;6.60;;;0.50;1.00;;;;;;4814904;28;21214;-77
2020/12/27 09:32:22;;;;;;;14.97;7.50;;;0.40;99.90;;;;;;4799182;28;20678;-78
2020/12/27 09:34:55;;;;;;;9.03;6.50;;;0.70;99.90;;;;;;4798065;28;20700;-74
2020/12/27 09:37:18;;;;;;;10.17;6.63;;;1.70;17.40;;;;;;4780524;28;20642;-74
2020/12/27 09:39:40;;;;;;;10.73;6.37;;;3.80;1.00;;;;;;4814717;28;20614;-75
2020/12/27 09:42:02;;;;;;;8.73;5.67;;;9.40;1.00;;;;;;4782204;28;20207;-75
2020/12/27 09:44:29;;;;;;;8.27;5.83;;;9.60;1.00;;;;;;4799065;28;20215;-74
2020/12/27 09:46:52;;;;;;;8.37;5.33;;;12.40;1.00;;;;;;4782334;28;20196;-76
2020/12/27 09:49:19;;;;;;;7.97;5.67;;;14.60;1.00;;;;;;4798002;28;20251;-77
2020/12/27 09:51:43;;;;;;;5.83;4.77;;;16.40;1.00;;;;;;4781973;28;20263;-81
2020/12/27 09:54:05;;;;;;;4.33;3.80;;;17.90;1.00;;;;;;4781814;28;20201;-78
2020/12/27 09:56:27;;;;;;;4.10;3.70;;;19.00;1.00;;;;;;4782222;28;20244;-73
2020/12/27 09:58:49;;;;;;;2.83;2.60;;;19.30;1.00;;;;;;4782125;28;20639;-76
2020/12/27 10:01:11;;;;;;;3.30;3.00;;;18.90;1.00;;;;;;4795547;28;20263;-80
2020/12/27 10:03:33;;;;;;;2.90;2.70;;;17.60;1.00;;;;;;4797223;28;20242;-79
2020/12/27 10:05:55;;;;;;;2.90;2.70;;;14.10;1.00;;;;;;4782121;28;20220;-76
2020/12/27 10:08:18;;;;;;;3.40;3.10;;;13.80;99.90;;;;;;4799240;28;20224;-77
2020/12/27 10:10:40;;;;;;;3.77;3.40;;;12.00;99.90;;;;;;4781211;28;20651;-75
2020/12/27 10:13:02;;;;;;;5.13;4.13;;;10.40;99.90;;;;;;4785250;28;20252;-74
2020/12/27 10:15:24;;;;;;;5.43;4.50;;;9.00;99.90;;;;;;4784477;28;20252;-77
2020/12/27 10:17:47;;;;;;;6.73;5.60;;;7.80;99.90;;;;;;4785630;28;20205;-81
2020/12/27 10:20:10;;;;;;;7.53;6.30;;;6.20;1.00;;;;;;4785530;28;20205;-75
2020/12/27 10:22:32;;;;;;;8.30;6.70;;;5.90;99.90;;;;;;4786007;28;20191;-76
2020/12/27 10:24:55;;;;;;;10.00;7.37;;;5.20;99.90;;;;;;4802642;28;20183;-78
2020/12/27 10:27:18;;;;;;;8.70;7.33;;;4.60;99.90;;;;;;4770695;28;20217;-76
2020/12/27 10:29:40;;;;;;;11.23;7.90;;;4.20;99.90;;;;;;4785661;28;20261;-74
2020/12/27 10:32:04;;;;;;;11.30;7.80;;;3.80;99.90;;;;;;4801922;28;20556;-75
2020/12/27 10:34:27;;;;;;;12.90;8.50;;;3.10;1.00;;;;;;4802580;28;20764;-75
2020/12/27 10:36:51;;;;;;;11.93;8.47;;;3.30;99.90;;;;;;4785748;28;20308;-77
2020/12/27 10:39:13;;;;;;;12.83;8.80;;;3.10;1.00;;;;;;4784722;28;20252;-78
2020/12/27 10:41:40;;;;;;;12.47;8.70;;;3.00;1.00;;;;;;4802038;28;20231;-75
2020/12/27 10:44:02;;;;;;;12.33;9.00;;;2.80;1.00;;;;;;4765508;29;20706;-76
2020/12/27 10:46:24;;;;;;;13.03;8.70;;;2.70;1.00;;;;;;4801722;28;20215;-80
2020/12/27 10:48:47;;;;;;;13.83;9.30;;;2.70;1.00;;;;;;4801921;28;20448;-77
2020/12/27 10:51:09;;;;;;;11.90;8.33;;;2.60;1.00;;;;;;4801555;28;20188;-81
2020/12/27 10:53:32;;;;;;;12.57;8.90;;;2.50;1.00;;;;;;4783386;28;20663;-79
2020/12/27 10:55:54;;;;;;;12.13;8.33;;;2.60;1.00;;;;;;4784901;28;20220;-76
2020/12/27 10:58:17;;;;;;;11.70;7.60;;;2.60;1.00;;;;;;4769282;28;20245;-78
2020/12/27 11:00:39;;;;;;;13.53;8.50;;;2.60;1.00;;;;;;4782749;28;20309;-77
2020/12/27 11:03:01;;;;;;;12.57;7.50;;;2.60;1.00;;;;;;4801731;28;20615;-80
2020/12/27 11:05:23;;;;;;;11.37;7.73;;;2.60;1.00;;;;;;4783332;28;20612;-75
2020/12/27 11:07:45;;;;;;;12.77;6.50;;;2.70;1.00;;;;;;4784387;28;20304;-73
2020/12/27 11:10:07;;;;;;;9.20;6.10;;;3.10;1.00;;;;;;4802097;28;20251;-77
2020/12/27 11:12:29;;;;;;;7.43;5.10;;;3.50;1.00;;;;;;4784643;28;20252;-77
2020/12/27 11:14:52;;;;;;;9.07;6.10;;;3.90;1.00;;;;;;4783757;28;20232;-79
2020/12/27 11:17:16;;;;;;;7.20;5.27;;;3.50;1.00;;;;;;4805064;28;20196;-75
2020/12/27 11:19:39;;;;;;;14.07;5.40;;;3.50;1.00;;;;;;4775776;29;20199;-78
2020/12/27 11:22:01;;;;;;;10.17;5.90;;;3.60;1.00;;;;;;4781806;28;20237;-78
2020/12/27 11:24:23;;;;;;;8.20;5.33;;;3.50;1.00;;;;;;4764622;29;20252;-76
2020/12/27 11:26:45;;;;;;;8.47;5.03;;;3.50;1.00;;;;;;4802604;28;20196;-79
2020/12/27 11:29:07;;;;;;;8.20;5.60;;;3.70;1.00;;;;;;4801798;28;20678;-78
2020/12/27 11:31:30;;;;;;;9.17;5.83;;;3.50;1.00;;;;;;4801839;28;20254;-77
2020/12/27 11:33:54;;;;;;;8.67;5.47;;;3.70;1.00;;;;;;4801287;28;20613;-76
2020/12/27 11:36:17;;;;;;;8.23;5.10;;;3.50;1.00;;;;;;4800847;28;20701;-76
2020/12/27 11:38:39;;;;;;;8.37;4.97;;;3.70;1.00;;;;;;4801745;28;20258;-75
2020/12/27 11:41:01;;;;;;;8.17;5.40;;;3.80;1.00;;;;;;4767888;28;20201;-77
2020/12/27 11:43:23;;;;;;;7.13;4.83;;;4.10;1.00;;;;;;4784493;28;20215;-75
2020/12/27 11:45:45;;;;;;;8.10;5.30;;;4.40;1.00;;;;;;4783774;28;20584;-78
2020/12/27 11:48:08;;;;;;;7.07;4.40;;;4.30;1.00;;;;;;4783025;28;20192;-77
2020/12/27 11:50:30;;;;;;;7.40;4.83;;;4.90;1.00;;;;;;4784457;28;20205;-77
2020/12/27 11:52:53;;;;;;;7.27;4.73;;;5.80;1.00;;;;;;4768355;28;20233;-76
2020/12/27 11:55:15;;;;;;;6.53;4.03;;;8.40;1.00;;;;;;4783140;28;20694;-75
2020/12/27 11:57:37;;;;;;;4.37;3.50;;;10.50;1.00;;;;;;4784156;28;20228;-78
2020/12/27 11:59:59;;;;;;;3.57;2.73;;;13.00;1.00;;;;;;4801034;28;20180;-75
2020/12/27 12:02:21;;;;;;;2.37;2.17;;;13.40;1.00;;;;;;4781568;28;20714;-77
2020/12/27 12:04:45;;;;;;;1.47;1.37;;;16.10;1.00;;;;;;4800410;28;20188;-75
2020/12/27 12:07:08;;;;;;;0.60;0.60;;;20.40;1.00;;;;;;4800954;28;20279;-75
2020/12/27 12:09:30;;;;;;;0.20;0.20;;;20.70;1.00;;;;;;4783189;28;20205;-74
2020/12/27 12:11:52;;;;;;;0.17;0.17;;;22.40;1.00;;;;;;4801353;28;20255;-76
2020/12/27 12:14:14;;;;;;;0.03;0.03;;;23.50;1.00;;;;;;4809246;28;20200;-80
2020/12/27 12:16:36;;;;;;;0.10;0.10;;;25.80;1.00;;;;;;4782762;29;20270;-77
2020/12/27 12:18:59;;;;;;;0.00;0.00;;;25.80;99.90;;;;;;4782630;29;20221;-76
2020/12/27 12:21:22;;;;;;;0.00;0.00;;;27.80;1.00;;;;;;4789798;28;20632;-74
2020/12/27 12:23:44;;;;;;;0.00;0.00;;;28.70;1.00;;;;;;4766712;28;20230;-74
2020/12/27 12:26:06;;;;;;;0.00;0.00;;;28.80;99.90;;;;;;4800666;28;21040;-76
2020/12/27 12:28:28;;;;;;;0.00;0.00;;;30.10;1.00;;;;;;4783037;28;20205;-77
2020/12/27 12:30:50;;;;;;;0.10;0.10;;;30.00;99.90;;;;;;4782657;28;20981;-79
2020/12/27 12:33:12;;;;;;;0.20;0.20;;;30.60;1.00;;;;;;4783597;28;20207;-76
2020/12/27 12:35:34;;;;;;;0.20;0.20;;;30.50;99.90;;;;;;4782411;28;20257;-75
2020/12/27 12:37:59;;;;;;;0.20;0.20;;;30.90;99.90;;;;;;4782831;28;20211;-74
2020/12/27 12:40:21;;;;;;;0.20;0.20;;;31.00;99.90;;;;;;4782793;28;20190;-76
2020/12/27 12:42:44;;;;;;;0.20;0.20;;;30.80;99.90;;;;;;4808992;28;20201;-73
2020/12/27 12:45:08;;;;;;;0.10;0.10;;;30.70;99.90;;;;;;4766893;28;20225;-74
2020/12/27 12:47:30;;;;;;;0.20;0.20;;;30.70;99.90;;;;;;4800638;28;20274;-77
2020/12/27 12:49:52;;;;;;;0.10;0.10;;;30.70;99.90;;;;;;4800006;28;20195;-79
2020/12/27 12:52:14;;;;;;;0.20;0.20;;;30.50;99.90;;;;;;4813737;28;20304;-77
2020/12/27 12:54:37;;;;;;;0.17;0.17;;;30.30;99.90;;;;;;4799461;28;20652;-75